Time;durP1;ratioP1;P1;durP2;ratioP2;P2;SDS_P1;SDS_P2;PMS_P1;PMS_P2;Temp;Humidity;BMP_temperature;BMP_pressure;BME280_temperature;BME280_humidity;BME280_pressure;Samples;Min_cycle;Max_cycle;Signal;HPM_P1;HPM_P2
2023/11/12 00:03:21;;;;;;;6.00;5.50;;;;;;;7.41;100.00;99162.44;178835;1263;46241;-87
2023/11/12 00:07:25;;;;;;;8.30;7.30;;;;;;;7.42;100.00;99162.85;179446;1265;45987;-88
2023/11/12 00:11:33;;;;;;;6.20;5.60;;;;;;;7.41;100.00;99168.09;178383;1263;45998;-87
2023/11/12 00:15:39;;;;;;;7.90;5.10;;;;;;;7.38;100.00;99175.96;178796;1262;58300;-85
2023/11/12 00:19:42;;;;;;;8.50;6.40;;;;;;;7.41;100.00;99178.00;178045;1260;46204;-81
2023/11/12 00:23:48;;;;;;;7.20;6.40;;;;;;;7.46;100.00;99184.45;178080;1263;46069;-86
2023/11/12 00:27:52;;;;;;;;;;;;;;;7.49;100.00;99187.59;179745;1262;44444;-88
2023/11/12 00:31:55;;;;;;;7.70;5.10;;;;;;;7.46;100.00;99191.14;178208;1261;45820;-86
2023/11/12 00:35:59;;;;;;;11.60;6.90;;;;;;;7.46;100.00;99191.86;180051;1261;59592;-84
2023/11/12 00:40:03;;;;;;;7.30;6.10;;;;;;;7.45;100.00;99201.45;178026;1262;46002;-86
2023/11/12 00:44:08;;;;;;;8.30;6.00;;;;;;;7.52;100.00;99199.42;177959;1262;46039;-85
2023/11/12 00:48:13;;;;;;;15.80;7.30;;;;;;;7.54;100.00;99197.46;178859;1261;46129;-83
2023/11/12 00:52:17;;;;;;;9.70;7.60;;;;;;;7.49;100.00;99198.28;178015;1262;316336;-87
2023/11/12 00:56:21;;;;;;;7.40;6.50;;;;;;;7.40;100.00;99203.48;178744;1261;59551;-85
2023/11/12 01:00:24;;;;;;;8.40;6.40;;;;;;;7.34;100.00;99203.52;178902;1262;44013;-87
2023/11/12 01:04:28;;;;;;;9.80;6.40;;;;;;;7.36;100.00;99209.46;178551;1261;46003;-87
2023/11/12 01:08:31;;;;;;;10.00;7.00;;;;;;;7.40;100.00;99209.14;178450;1261;44028;-84
2023/11/12 01:12:35;;;;;;;7.20;5.40;;;;;;;7.36;100.00;99210.02;178913;1264;45985;-81
2023/11/12 01:16:38;;;;;;;10.70;7.60;;;;;;;7.35;100.00;99208.00;177274;1262;59922;-85
2023/11/12 01:20:42;;;;;;;11.10;8.50;;;;;;;7.38;100.00;99205.79;179367;1262;46025;-86
2023/11/12 01:24:46;;;;;;;11.00;8.60;;;;;;;7.40;100.00;99208.44;178172;1261;44505;-88
2023/11/12 01:28:50;;;;;;;11.00;7.40;;;;;;;7.41;100.00;99207.83;179331;1262;45917;-85
2023/11/12 01:32:53;;;;;;;9.00;6.70;;;;;;;7.40;100.00;99208.05;179353;1261;46025;-89
2023/11/12 01:36:56;;;;;;;7.30;6.60;;;;;;;7.34;100.00;99208.40;179950;1262;59901;-87
2023/11/12 01:41:03;;;;;;;11.70;7.90;;;;;;;7.34;100.00;99208.77;179188;1261;46039;-79
2023/11/12 01:45:09;;;;;;;11.00;6.50;;;;;;;7.36;100.00;99205.02;180549;1262;44106;-85
2023/11/12 01:49:13;;;;;;;;;;;;;;;7.37;100.00;99208.29;179299;1262;46660;-87
2023/11/12 01:53:17;;;;;;;12.50;6.40;;;;;;;7.40;100.00;99208.05;177796;1262;46136;-86
2023/11/12 01:57:20;;;;;;;10.50;7.80;;;;;;;7.38;100.00;99211.09;178664;1262;57181;-86
2023/11/12 02:01:24;;;;;;;9.90;7.70;;;;;;;7.38;100.00;99209.14;179536;1262;45946;-86
2023/11/12 02:05:28;;;;;;;7.90;5.80;;;;;;;7.41;100.00;99209.39;178207;1260;46012;-85
2023/11/12 02:09:32;;;;;;;7.90;6.60;;;;;;;7.46;100.00;99208.98;177786;1262;46026;-88
2023/11/12 02:13:42;;;;;;;5.60;5.00;;;;;;;7.48;100.00;99212.02;178075;1262;45884;-87
2023/11/12 02:17:46;;;;;;;9.90;7.40;;;;;;;7.46;100.00;99211.79;177798;1262;58243;-87
2023/11/12 02:21:49;;;;;;;9.10;6.60;;;;;;;7.48;100.00;99211.98;178547;1262;45846;-85
2023/11/12 02:25:52;;;;;;;7.30;5.00;;;;;;;7.53;100.00;99212.38;179964;1262;44532;-88
2023/11/12 02:29:56;;;;;;;9.30;5.90;;;;;;;7.57;100.00;99213.15;177836;1262;46077;-86
2023/11/12 02:33:59;;;;;;;6.20;5.40;;;;;;;7.61;100.00;99210.30;177828;1263;46023;-88
2023/11/12 02:38:06;;;;;;;6.70;5.60;;;;;;;7.67;100.00;99207.36;178821;1262;60584;-85
2023/11/12 02:42:09;;;;;;;;;;;;;;;7.72;100.00;99209.91;178138;1262;45997;-87
2023/11/12 02:46:15;;;;;;;7.00;5.80;;;;;;;7.77;100.00;99210.55;178580;1262;46243;-86
2023/11/12 02:50:31;;;;;;;6.90;5.90;;;;;;;7.78;100.00;99208.85;179107;1262;45998;-86
2023/11/12 02:54:35;;;;;;;8.30;6.70;;;;;;;7.79;100.00;99204.86;178760;1260;44355;-85
2023/11/12 02:58:38;;;;;;;11.70;7.00;;;;;;;7.83;100.00;99204.36;180036;1262;60009;-86
2023/11/12 03:02:45;;;;;;;9.90;6.40;;;;;;;7.83;100.00;99203.98;180285;1261;45961;-89
2023/11/12 03:06:49;;;;;;;21.90;8.20;;;;;;;7.85;100.00;99202.91;180076;1262;43798;-89
2023/11/12 03:10:54;;;;;;;12.00;6.30;;;;;;;7.89;100.00;99204.07;179625;1262;46615;-85
2023/11/12 03:14:57;;;;;;;10.20;7.70;;;;;;;7.91;100.00;99210.03;179568;1262;45953;-85
2023/11/12 03:19:01;;;;;;;8.40;6.10;;;;;;;7.91;100.00;99209.69;178132;1262;59584;-88
2023/11/12 03:23:04;;;;;;;10.60;6.60;;;;;;;7.94;100.00;99209.80;179332;1262;46125;-83
2023/11/12 03:27:08;;;;;;;9.90;7.20;;;;;;;7.95;100.00;99210.54;177822;1262;44125;-87
2023/11/12 03:31:11;;;;;;;8.50;5.90;;;;;;;7.95;100.00;99208.95;179556;1262;44034;-87
2023/11/12 03:35:16;;;;;;;6.80;5.60;;;;;;;7.93;100.00;99211.45;178688;1262;46132;-87
2023/11/12 03:39:19;;;;;;;5.80;5.20;;;;;;;7.93;100.00;99211.15;180125;1261;59555;-87
2023/11/12 03:43:23;;;;;;;10.70;5.20;;;;;;;7.91;100.00;99209.67;178577;1262;44519;-83
2023/11/12 03:47:26;;;;;;;6.90;5.80;;;;;;;7.92;100.00;99212.65;179668;1261;43958;-87
2023/11/12 03:51:30;;;;;;;10.70;7.90;;;;;;;7.86;100.00;99212.94;179034;1262;46246;-88
2023/11/12 03:55:33;;;;;;;8.80;6.00;;;;;;;7.83;100.00;99217.38;180620;1261;43871;-82
2023/11/12 03:59:37;;;;;;;5.90;5.10;;;;;;;7.81;100.00;99215.67;179246;1260;58980;-87
2023/11/12 04:03:40;;;;;;;8.50;6.70;;;;;;;7.81;100.00;99214.73;179635;1262;46438;-85
2023/11/12 04:07:44;;;;;;;9.40;7.40;;;;;;;7.76;100.00;99211.48;178229;1262;45959;-87
2023/11/12 04:11:48;;;;;;;9.60;7.10;;;;;;;7.72;100.00;99215.41;178272;1262;46103;-85
2023/11/12 04:15:52;;;;;;;10.00;5.90;;;;;;;7.66;100.00;99220.09;179416;1260;44276;-85
2023/11/12 04:19:57;;;;;;;11.70;6.40;;;;;;;7.62;100.00;99226.50;178042;1262;60157;-86
2023/11/12 04:24:03;;;;;;;8.10;5.90;;;;;;;7.59;100.00;99221.05;178150;1262;46019;-81
2023/11/12 04:28:07;;;;;;;9.80;6.50;;;;;;;7.58;100.00;99226.45;178400;1262;45978;-86
2023/11/12 04:32:10;;;;;;;6.90;6.10;;;;;;;7.61;100.00;99226.95;178971;1262;45984;-84
2023/11/12 04:36:14;;;;;;;7.80;6.10;;;;;;;7.64;100.00;99225.77;178845;1260;45991;-89
2023/11/12 04:40:17;;;;;;;7.90;5.70;;;;;;;7.66;100.00;99231.06;178519;1264;60064;-88
2023/11/12 04:44:21;;;;;;;8.90;6.30;;;;;;;7.68;100.00;99228.59;178738;1261;44579;-85
2023/11/12 04:48:29;;;;;;;9.60;7.70;;;;;;;7.70;100.00;99232.85;179552;1265;44300;-89
2023/11/12 04:52:33;;;;;;;9.20;6.50;;;;;;;7.76;100.00;99236.21;178154;1262;45975;-85
2023/11/12 04:56:44;;;;;;;7.20;5.60;;;;;;;7.77;100.00;99236.15;178979;1262;44234;-87
2023/11/12 05:00:47;;;;;;;7.90;6.20;;;;;;;7.80;100.00;99234.48;178385;1262;58781;-87
2023/11/12 05:04:51;;;;;;;7.80;7.00;;;;;;;7.85;100.00;99237.52;179024;1260;45991;-86
2023/11/12 05:08:55;;;;;;;10.90;6.40;;;;;;;7.90;100.00;99239.45;177892;1262;45978;-88
2023/11/12 05:12:58;;;;;;;5.40;4.90;;;;;;;7.91;100.00;99235.98;178030;1263;45960;-86
2023/11/12 05:17:02;;;;;;;7.10;6.40;;;;;;;7.88;100.00;99238.01;177946;1260;46211;-86
2023/11/12 05:21:06;;;;;;;10.30;6.50;;;;;;;7.85;100.00;99241.44;177823;1265;59756;-87
2023/11/12 05:25:12;;;;;;;6.90;5.50;;;;;;;7.79;100.00;99244.44;179338;1260;44691;-89
2023/11/12 05:29:16;;;;;;;9.70;5.70;;;;;;;7.79;100.00;99248.34;178934;1263;46014;-86
2023/11/12 05:33:19;;;;;;;8.50;5.10;;;;;;;7.82;100.00;99253.34;179211;1260;44151;-86
2023/11/12 05:37:23;;;;;;;5.30;4.70;;;;;;;7.81;100.00;99253.41;178064;1262;46371;-85
2023/11/12 05:41:26;;;;;;;24.90;7.80;;;;;;;7.82;100.00;99260.89;178450;1262;59545;-85
2023/11/12 05:45:30;;;;;;;10.10;6.40;;;;;;;7.83;100.00;99262.78;179407;1262;44473;-87
2023/11/12 05:49:34;;;;;;;7.20;4.50;;;;;;;7.82;100.00;99263.60;179770;1261;44227;-88
2023/11/12 05:53:37;;;;;;;6.90;5.70;;;;;;;7.81;100.00;99263.49;177968;1262;46024;-86
2023/11/12 05:57:41;;;;;;;7.40;5.40;;;;;;;7.76;100.00;99271.15;178631;1262;45942;-86
2023/11/12 06:01:44;;;;;;;4.60;3.80;;;;;;;7.70;100.00;99269.39;177400;1262;58595;-83
2023/11/12 06:05:48;;;;;;;6.90;4.40;;;;;;;7.66;100.00;99265.67;178671;1261;46001;-83
2023/11/12 06:09:52;;;;;;;5.50;5.00;;;;;;;7.67;100.00;99271.02;180797;1261;43597;-84
2023/11/12 06:13:55;;;;;;;5.70;4.60;;;;;;;7.71;100.00;99271.05;177826;1262;46027;-83
2023/11/12 06:17:58;;;;;;;6.90;6.30;;;;;;;7.74;100.00;99274.12;177957;1261;45310;-88
2023/11/12 06:22:02;;;;;;;6.30;5.00;;;;;;;7.76;100.00;99275.41;177559;1262;58115;-86
2023/11/12 06:26:06;;;;;;;6.20;5.20;;;;;;;7.76;100.00;99280.70;178252;1261;46131;-86
2023/11/12 06:30:10;;;;;;;8.20;5.20;;;;;;;7.79;100.00;99285.38;178603;1261;45986;-88
2023/11/12 06:34:13;;;;;;;4.10;3.80;;;;;;;7.81;100.00;99289.40;178023;1262;45994;-88
2023/11/12 06:38:17;;;;;;;5.80;4.00;;;;;;;7.82;100.00;99293.21;177821;1261;44776;-86
2023/11/12 06:42:20;;;;;;;5.80;4.40;;;;;;;7.84;100.00;99296.55;178744;1261;59607;-86
2023/11/12 06:46:25;;;;;;;6.70;4.90;;;;;;;7.84;100.00;99293.53;178245;1262;46104;-87
2023/11/12 06:50:28;;;;;;;6.40;5.60;;;;;;;7.84;100.00;99298.82;178955;1261;46090;-85
2023/11/12 06:54:32;;;;;;;5.90;5.30;;;;;;;7.82;100.00;99304.86;178006;1262;44594;-87
2023/11/12 06:58:35;;;;;;;5.90;5.20;;;;;;;7.81;100.00;99306.03;177866;1264;46105;-84
2023/11/12 07:02:38;;;;;;;5.50;4.40;;;;;;;7.79;100.00;99313.46;178569;1261;58114;-88
2023/11/12 07:06:42;;;;;;;9.00;5.70;;;;;;;7.78;100.00;99310.36;177489;1262;44323;-86
2023/11/12 07:10:57;;;;;;;9.90;6.50;;;;;;;7.82;100.00;99317.93;177773;1265;46095;-85
2023/11/12 07:15:01;;;;;;;7.00;6.00;;;;;;;7.86;100.00;99321.52;178626;1260;46008;-85
2023/11/12 07:19:04;;;;;;;8.00;5.80;;;;;;;7.89;100.00;99329.55;178105;1265;45978;-84
2023/11/12 07:23:07;;;;;;;8.80;5.70;;;;;;;7.87;100.00;99330.91;178838;1261;58554;-87
2023/11/12 07:27:11;;;;;;;9.20;6.30;;;;;;;7.87;100.00;99334.86;177485;1262;45912;-85
2023/11/12 07:31:16;;;;;;;11.10;6.60;;;;;;;7.86;100.00;99331.03;178044;1262;45969;-86
2023/11/12 07:35:19;;;;;;;9.00;6.50;;;;;;;7.90;100.00;99333.33;178823;1265;46010;-84
2023/11/12 07:39:22;;;;;;;9.70;7.50;;;;;;;7.95;100.00;99337.88;178642;1262;44438;-85
2023/11/12 07:43:26;;;;;;;8.40;7.60;;;;;;;7.99;100.00;99342.10;178154;1262;58256;-84
2023/11/12 07:47:29;;;;;;;16.40;6.40;;;;;;;8.01;100.00;99342.47;179379;1263;45013;-86
2023/11/12 07:51:33;;;;;;;12.20;7.90;;;;;;;8.05;100.00;99342.09;178102;1262;46122;-86
2023/11/12 07:55:37;;;;;;;6.60;6.00;;;;;;;8.11;100.00;99342.49;178494;1262;45963;-85
2023/11/12 07:59:41;;;;;;;7.10;6.40;;;;;;;8.18;100.00;99343.68;177560;1262;46159;-84
2023/11/12 08:03:44;;;;;;;5.50;4.70;;;;;;;8.22;100.00;99351.67;177956;1263;57936;-82
2023/11/12 08:07:47;;;;;;;10.10;6.20;;;;;;;8.26;100.00;99357.46;178455;1262;45998;-83
2023/11/12 08:11:51;;;;;;;7.70;6.20;;;;;;;8.30;100.00;99356.20;177443;1262;46222;-85
2023/11/12 08:15:54;;;;;;;6.40;5.50;;;;;;;8.32;100.00;99359.07;178524;1262;46098;-86
2023/11/12 08:19:58;;;;;;;6.50;5.70;;;;;;;8.33;100.00;99359.52;178731;1262;45911;-79
2023/11/12 08:24:01;;;;;;;5.60;4.70;;;;;;;8.34;100.00;99363.30;180927;1262;58306;-83
2023/11/12 08:28:05;;;;;;;5.90;5.30;;;;;;;8.40;100.00;99368.36;178951;1262;45579;-88
2023/11/12 08:32:08;;;;;;;8.00;5.80;;;;;;;8.41;100.00;99368.51;177904;1262;44362;-83
2023/11/12 08:36:12;;;;;;;7.10;5.20;;;;;;;8.44;100.00;99370.77;177481;1262;46277;-86
2023/11/12 08:40:16;;;;;;;7.20;5.80;;;;;;;8.53;100.00;99365.39;180128;1264;45985;-84
2023/11/12 08:44:22;;;;;;;6.00;4.70;;;;;;;8.64;100.00;99366.94;177560;1264;58632;-86
2023/11/12 08:48:31;;;;;;;5.50;4.60;;;;;;;8.75;100.00;99368.63;179730;1261;44141;-87
2023/11/12 08:52:37;;;;;;;5.30;4.30;;;;;;;8.84;100.00;99369.73;179479;1263;45978;-88
2023/11/12 08:56:41;;;;;;;5.80;4.60;;;;;;;8.94;100.00;99373.27;178204;1262;46119;-86
2023/11/12 09:00:50;;;;;;;5.50;5.00;;;;;;;9.01;100.00;99375.54;179384;1262;92044;-64
2023/11/12 09:04:54;;;;;;;5.40;4.30;;;;;;;9.00;100.00;99374.55;177613;1267;58264;-86
2023/11/12 09:08:57;;;;;;;6.10;5.40;;;;;;;9.03;100.00;99376.55;178927;1263;46091;-86
2023/11/12 09:13:01;;;;;;;8.70;4.70;;;;;;;9.05;100.00;99377.47;178640;1263;45846;-86
2023/11/12 09:17:04;;;;;;;7.10;4.90;;;;;;;9.04;100.00;99378.08;178443;1262;46204;-86
2023/11/12 09:21:08;;;;;;;7.10;4.90;;;;;;;9.07;100.00;99380.80;178342;1263;46214;-88
2023/11/12 09:34:39;;;;;;;7.00;5.90;;;;;;;9.08;100.00;99385.45;146162;1264;46317;-78
2023/11/12 09:38:43;;;;;;;6.00;5.40;;;;;;;9.08;100.00;99387.95;177643;1263;46126;-79
2023/11/12 09:42:54;;;;;;;7.80;7.00;;;;;;;9.08;99.95;99387.58;177855;1267;44317;-77
2023/11/12 09:47:21;;;;;;;13.10;5.80;;;;;;;9.09;100.00;99385.08;177781;1264;59892;-77
2023/11/12 09:51:24;;;;;;;5.00;4.50;;;;;;;9.05;99.85;99383.08;178711;1265;46049;-77
2023/11/12 09:55:30;;;;;;;5.80;4.90;;;;;;;9.14;100.00;99389.60;179061;1263;44538;-77
2023/11/12 09:59:35;;;;;;;7.40;5.20;;;;;;;9.25;100.00;99386.05;179110;1264;46061;-75
2023/11/12 10:03:41;;;;;;;6.70;4.70;;;;;;;9.31;99.68;99383.09;179147;1265;45927;-79
2023/11/12 10:07:50;;;;;;;7.70;5.70;;;;;;;9.39;99.59;99380.54;179248;1265;58233;-77
2023/11/12 10:12:06;;;;;;;6.50;3.80;;;;;;;9.42;97.95;99376.73;179179;1264;45994;-78
2023/11/12 10:16:31;;;;;;;4.90;4.40;;;;;;;9.41;97.55;99374.72;178860;1269;44778;-76
2023/11/12 10:20:40;;;;;;;11.10;4.10;;;;;;;9.45;97.42;99371.23;178660;1264;46151;-76
2023/11/12 10:24:45;;;;;;;6.10;4.20;;;;;;;9.51;98.78;99372.23;179185;1263;44090;-75
2023/11/12 10:28:49;;;;;;;5.70;5.10;;;;;;;9.54;98.89;99369.50;178565;1264;58450;-79
2023/11/12 10:33:23;;;;;;;7.30;4.90;;;;;;;9.60;98.48;99369.61;178404;1264;45014;-77
2023/11/12 10:37:27;;;;;;;8.50;5.80;;;;;;;9.68;99.64;99368.61;178739;1263;46025;-75
2023/11/12 10:42:00;;;;;;;10.80;5.00;;;;;;;9.79;97.89;99365.04;179069;1268;46119;-76
2023/11/12 10:46:06;;;;;;;10.00;6.00;;;;;;;9.83;96.73;99361.16;179073;1265;43598;-76
2023/11/12 10:50:18;;;;;;;9.90;4.50;;;;;;;9.83;96.94;99364.69;178938;1264;60193;-76
2023/11/12 10:54:31;;;;;;;7.50;4.60;;;;;;;9.96;96.93;99366.55;178869;1265;44076;-75
2023/11/12 10:58:35;;;;;;;8.70;6.00;;;;;;;10.05;96.29;99356.82;179140;1263;46146;-73
2023/11/12 11:02:46;;;;;;;5.50;4.80;;;;;;;10.15;97.38;99356.79;179118;1267;44643;-78
2023/11/12 11:06:59;;;;;;;5.30;4.80;;;;;;;10.13;95.33;99356.17;178887;1263;44364;-74
2023/11/12 11:11:07;;;;;;;6.10;5.50;;;;;;;10.03;96.61;99362.27;179352;1264;60883;-73
2023/11/12 11:15:44;;;;;;;11.00;4.80;;;;;;;9.99;96.93;99363.36;178428;1264;46130;-75
2023/11/12 11:19:49;;;;;;;7.10;4.90;;;;;;;9.98;96.84;99361.90;178234;1267;46126;-74
2023/11/12 11:23:55;;;;;;;9.20;5.80;;;;;;;9.94;96.51;99368.48;177997;1267;46173;-76
2023/11/12 11:28:34;;;;;;;7.40;6.00;;;;;;;9.86;96.35;99371.71;178757;1264;45978;-74
2023/11/12 11:32:59;;;;;;;7.90;5.00;;;;;;;9.73;97.69;99375.92;177459;1270;58778;-76
2023/11/12 11:37:04;;;;;;;6.40;5.20;;;;;;;9.63;96.77;99374.02;177529;1271;46531;-75
2023/11/12 11:41:09;;;;;;;4.60;3.70;;;;;;;9.37;98.03;99370.65;177348;1270;46041;-72
2023/11/12 11:45:58;;;;;;;4.80;4.40;;;;;;;9.27;99.74;99374.04;177311;1271;45312;-74
2023/11/12 11:50:04;;;;;;;9.00;4.70;;;;;;;9.29;100.00;99373.69;177608;1275;46286;-74
2023/11/12 11:54:17;;;;;;;7.00;6.10;;;;;;;9.27;99.86;99377.02;178034;1270;57457;-73
2023/11/12 11:58:21;;;;;;;4.80;3.70;;;;;;;9.40;99.97;99372.69;178471;1273;44476;-71
2023/11/12 12:02:25;;;;;;;6.00;4.70;;;;;;;9.46;99.86;99378.00;178621;1270;45081;-71
2023/11/12 12:06:30;;;;;;;4.20;3.70;;;;;;;9.35;98.09;99377.02;178314;1265;46097;-74
2023/11/12 12:10:34;;;;;;;5.80;5.20;;;;;;;9.45;97.29;99381.27;179164;1263;44806;-74
2023/11/12 12:14:42;;;;;;;8.40;3.90;;;;;;;9.51;96.92;99383.55;179393;1264;58387;-66
2023/11/12 12:18:45;;;;;;;7.00;4.10;;;;;;;9.58;98.10;99391.29;177381;1263;46146;-87
2023/11/12 12:22:51;;;;;;;5.60;4.80;;;;;;;9.61;96.80;99391.20;177300;1263;46078;-87
2023/11/12 12:26:56;;;;;;;3.10;2.50;;;;;;;9.63;97.35;99394.55;178077;1264;45937;-88
2023/11/12 12:31:06;;;;;;;4.80;4.20;;;;;;;9.52;97.28;99394.59;177352;1262;46004;-87
2023/11/12 12:35:29;;;;;;;4.80;3.10;;;;;;;9.49;96.44;99397.52;177187;1267;58228;-88
2023/11/12 12:39:56;;;;;;;4.10;3.20;;;;;;;9.42;96.97;99398.57;177451;1262;46053;-88
2023/11/12 12:44:04;;;;;;;5.50;3.60;;;;;;;9.44;96.94;99399.79;177919;1264;46241;-87
2023/11/12 12:48:48;;;;;;;6.50;3.60;;;;;;;9.56;97.48;99399.22;178145;1263;46116;-88
2023/11/12 12:53:23;;;;;;;6.10;4.40;;;;;;;9.67;96.12;99405.34;177624;1264;271620;-87
2023/11/12 12:57:27;;;;;;;4.30;3.10;;;;;;;9.72;95.24;99413.38;177815;1264;60614;-87
2023/11/12 13:01:30;;;;;;;4.30;3.80;;;;;;;9.72;94.57;99414.73;177740;1263;46123;-87
2023/11/12 13:05:34;;;;;;;3.10;2.80;;;;;;;9.69;94.06;99418.95;177559;1264;45927;-87
2023/11/12 13:09:39;;;;;;;7.60;3.40;;;;;;;9.68;95.40;99419.52;177376;1262;46093;-87
2023/11/12 13:13:46;;;;;;;4.10;3.70;;;;;;;9.72;96.80;99419.00;177876;1264;46053;-89
2023/11/12 13:17:50;;;;;;;5.50;3.50;;;;;;;9.73;96.28;99418.38;179025;1263;57987;-90
2023/11/12 13:21:55;;;;;;;7.20;4.40;;;;;;;9.67;95.17;99419.62;178661;1267;46115;-89
2023/11/12 13:26:08;;;;;;;7.90;5.40;;;;;;;9.65;96.10;99422.67;178762;1263;45226;-89
2023/11/12 13:30:13;;;;;;;4.90;3.30;;;;;;;9.61;95.83;99426.59;178182;1263;46036;-89
2023/11/12 13:34:23;;;;;;;9.70;4.90;;;;;;;9.58;95.78;99430.02;178379;1263;46104;-89
2023/11/12 13:38:31;;;;;;;6.60;3.90;;;;;;;9.64;97.21;99430.02;178041;1266;60056;-90
2023/11/12 13:42:46;;;;;;;4.80;3.90;;;;;;;9.70;96.55;99432.31;178070;1266;46175;-89
2023/11/12 13:46:56;;;;;;;7.90;4.30;;;;;;;9.77;97.12;99436.07;178060;1262;46144;-89
2023/11/12 13:51:09;;;;;;;4.50;3.90;;;;;;;9.87;97.00;99440.95;177792;1263;46147;-87
2023/11/12 13:55:17;;;;;;;6.10;4.40;;;;;;;9.98;95.99;99439.84;178185;1266;46037;-88
2023/11/12 13:59:30;;;;;;;9.00;4.60;;;;;;;9.98;93.74;99442.79;177832;1264;59914;-89
2023/11/12 14:03:42;;;;;;;4.60;3.60;;;;;;;9.88;91.89;99445.14;177929;1262;46103;-89
2023/11/12 14:07:52;;;;;;;3.90;3.30;;;;;;;9.78;92.64;99449.27;178021;1264;46445;-89
2023/11/12 14:12:20;;;;;;;8.40;5.60;;;;;;;9.73;94.16;99446.34;178558;1264;46095;-88
2023/11/12 14:16:39;;;;;;;4.80;3.60;;;;;;;9.67;93.81;99446.70;179250;1267;45902;-89
2023/11/12 14:20:48;;;;;;;7.00;3.90;;;;;;;9.62;93.88;99451.45;178070;1263;59471;-89
2023/11/12 14:24:57;;;;;;;8.00;4.60;;;;;;;9.56;94.55;99453.05;178458;1265;46028;-89
2023/11/12 14:29:13;;;;;;;6.30;5.70;;;;;;;9.51;95.56;99452.58;178374;1264;46030;-89
2023/11/12 14:33:22;;;;;;;4.60;4.10;;;;;;;9.49;95.79;99455.45;178239;1266;46045;-88
2023/11/12 14:37:55;;;;;;;6.20;3.80;;;;;;;9.42;96.46;99454.41;178015;1264;45976;-89
2023/11/12 14:42:21;;;;;;;4.50;4.00;;;;;;;9.36;96.27;99456.05;177276;1266;57375;-88
2023/11/12 14:46:39;;;;;;;6.70;5.40;;;;;;;9.26;95.80;99457.67;176799;1265;46039;-88
2023/11/12 14:51:13;;;;;;;7.60;5.90;;;;;;;9.15;96.30;99463.04;177298;1263;46123;-88
2023/11/12 14:55:52;;;;;;;7.30;5.50;;;;;;;8.99;97.31;99470.80;177415;1265;44880;-89
2023/11/12 15:00:19;;;;;;;8.20;5.80;;;;;;;8.88;97.98;99473.15;177922;1264;44144;-87
2023/11/12 15:05:09;;;;;;;5.30;4.70;;;;;;;8.82;98.35;99473.88;177906;1267;58265;-89
2023/11/12 15:09:26;;;;;;;8.30;5.50;;;;;;;8.79;99.03;99475.40;177895;1263;46042;-88
2023/11/12 15:13:37;;;;;;;6.80;5.10;;;;;;;8.77;99.66;99477.71;178773;1267;45244;-88
2023/11/12 15:17:48;;;;;;;7.50;4.20;;;;;;;8.75;99.67;99477.38;178311;1263;46160;-87
2023/11/12 15:22:12;;;;;;;8.50;4.50;;;;;;;8.73;99.92;99474.85;177474;1267;46221;-90
2023/11/12 15:26:25;;;;;;;7.40;4.40;;;;;;;8.68;99.97;99475.96;177299;1265;58798;-89
2023/11/12 15:30:34;;;;;;;9.40;5.70;;;;;;;8.68;99.93;99479.67;177768;1267;46090;-85
2023/11/12 15:34:43;;;;;;;10.90;4.40;;;;;;;8.66;99.07;99483.42;177814;1264;46072;-85
2023/11/12 15:39:01;;;;;;;6.10;5.00;;;;;;;8.47;99.29;99483.73;178000;1264;45768;-87
2023/11/12 15:43:30;;;;;;;10.00;5.80;;;;;;;8.30;99.96;99485.35;179045;1265;45940;-87
2023/11/12 15:47:46;;;;;;;5.00;4.50;;;;;;;8.27;100.00;99486.28;179251;1264;58022;-86
2023/11/12 15:52:15;;;;;;;5.50;5.00;;;;;;;8.28;99.86;99485.33;178650;1265;46140;-86
2023/11/12 15:56:44;;;;;;;10.60;6.30;;;;;;;8.26;99.32;99485.69;177955;1265;46306;-85
2023/11/12 16:00:48;;;;;;;10.70;7.40;;;;;;;8.24;99.42;99486.60;177093;1265;46005;-86
2023/11/12 16:04:55;;;;;;;13.10;8.20;;;;;;;8.20;99.68;99484.44;177942;1265;46132;-86
2023/11/12 16:09:08;;;;;;;13.30;9.40;;;;;;;8.18;99.95;99486.02;177286;1265;58166;-87
2023/11/12 16:13:16;;;;;;;11.80;8.60;;;;;;;8.19;100.00;99489.81;177472;1265;44027;-85
2023/11/12 16:17:24;;;;;;;14.20;11.10;;;;;;;8.22;100.00;99491.14;176465;1265;46057;-86
2023/11/12 16:21:34;;;;;;;13.30;10.10;;;;;;;8.28;100.00;99494.37;177216;1265;46001;-89
2023/11/12 16:25:38;;;;;;;;;;;;;;;8.30;100.00;99498.77;176972;1268;46116;-90
2023/11/12 16:29:44;;;;;;;12.10;8.10;;;;;;;8.33;100.00;99498.02;177308;1265;58616;-88
2023/11/12 16:33:52;;;;;;;11.70;7.90;;;;;;;8.30;100.00;99500.70;177428;1265;46014;-87
2023/11/12 16:38:04;;;;;;;13.10;7.60;;;;;;;8.26;100.00;99503.87;177543;1265;46277;-88
2023/11/12 16:42:18;;;;;;;9.80;8.30;;;;;;;8.24;100.00;99498.96;177234;1268;46030;-88
2023/11/12 16:46:23;;;;;;;11.90;9.40;;;;;;;8.18;100.00;99502.75;176962;1265;46009;-88
2023/11/12 16:50:28;;;;;;;10.90;8.40;;;;;;;8.13;100.00;99506.86;177158;1269;59476;-89
2023/11/12 16:54:32;;;;;;;14.00;10.40;;;;;;;8.10;100.00;99508.36;177002;1265;46111;-88
2023/11/12 16:59:15;;;;;;;9.10;7.50;;;;;;;8.09;100.00;99512.71;177142;1267;46015;-88
2023/11/12 17:03:19;;;;;;;15.60;8.50;;;;;;;8.09;100.00;99518.03;177125;1266;45989;-88
2023/11/12 17:07:28;;;;;;;27.90;9.40;;;;;;;8.08;100.00;99523.04;177031;1267;44805;-87
2023/11/12 17:11:32;;;;;;;12.00;7.00;;;;;;;8.02;100.00;99529.52;177897;1267;57976;-88
2023/11/12 17:15:36;;;;;;;11.60;8.50;;;;;;;8.00;100.00;99536.59;178019;1265;46292;-89
2023/11/12 17:19:41;;;;;;;12.00;9.00;;;;;;;7.97;100.00;99536.13;177672;1269;46027;-88
2023/11/12 17:23:47;;;;;;;11.10;8.20;;;;;;;7.93;100.00;99542.61;177605;1265;46013;-88
2023/11/12 17:27:50;;;;;;;12.90;8.90;;;;;;;7.91;100.00;99544.40;177040;1265;46076;-88
2023/11/12 17:31:54;;;;;;;15.10;11.00;;;;;;;7.95;100.00;99545.47;176980;1265;58562;-89
2023/11/12 17:35:59;;;;;;;19.00;13.70;;;;;;;7.98;100.00;99551.38;177109;1270;46111;-89
2023/11/12 17:40:04;;;;;;;14.20;12.20;;;;;;;7.93;100.00;99554.14;177195;1265;46148;-87
2023/11/12 17:44:08;;;;;;;17.50;12.80;;;;;;;7.91;100.00;99556.73;177458;1269;46221;-89
2023/11/12 17:48:12;;;;;;;15.70;11.90;;;;;;;7.94;100.00;99560.27;177864;1265;45918;-88
2023/11/12 17:52:54;;;;;;;11.60;10.00;;;;;;;7.99;100.00;99562.29;178852;1269;59457;-90
2023/11/12 17:56:58;;;;;;;14.40;8.90;;;;;;;8.02;100.00;99568.39;178615;1268;46113;-88
2023/11/12 18:01:01;;;;;;;12.00;9.60;;;;;;;8.03;100.00;99564.57;179747;1266;43958;-89
2023/11/12 18:05:06;;;;;;;12.70;9.80;;;;;;;8.05;100.00;99567.60;179375;1265;44093;-88
2023/11/12 18:09:15;;;;;;;14.90;10.20;;;;;;;8.10;100.00;99572.50;179803;1264;43839;-88
2023/11/12 18:13:20;;;;;;;11.00;8.90;;;;;;;8.12;100.00;99574.77;179815;1265;58181;-89
2023/11/12 18:17:25;;;;;;;13.60;10.10;;;;;;;8.09;100.00;99581.21;179836;1266;44248;-89
2023/11/12 18:21:51;;;;;;;14.40;11.40;;;;;;;8.11;100.00;99580.90;178642;1266;43986;-90
2023/11/12 18:26:29;;;;;;;;;;;;;;;;;;;;;
2023/11/12 18:30:47;;;;;;;23.80;9.80;;;;;;;8.30;100.00;99579.82;141777;1292;46315;-87
2023/11/12 18:49:40;;;;;;;19.60;14.30;;;;;;;8.42;100.00;99586.77;179395;1264;93545;-68
2023/11/12 18:53:46;;;;;;;12.50;10.20;;;;;;;8.42;100.00;99587.48;179402;1267;44638;-69
2023/11/12 18:57:58;;;;;;;14.30;9.80;;;;;;;8.38;100.00;99588.91;178996;1267;59565;-68
2023/11/12 19:02:02;;;;;;;11.00;8.80;;;;;;;8.36;100.00;99587.33;179330;1264;91881;-84
2023/11/12 19:06:05;;;;;;;10.40;8.80;;;;;;;8.37;100.00;99592.19;177932;1267;46133;-82
2023/11/12 19:10:11;;;;;;;12.10;7.90;;;;;;;8.39;100.00;99594.99;177452;1267;46024;-86
2023/11/12 19:14:17;;;;;;;;;;;;;;;8.42;100.00;99600.41;178711;1267;46027;-83
2023/11/12 19:18:20;;;;;;;17.40;12.90;;;;;;;8.47;100.00;99601.98;179696;1268;57756;-84
2023/11/12 19:22:23;;;;;;;15.30;11.30;;;;;;;8.42;100.00;99603.42;179844;1267;44162;-85
2023/11/12 19:26:26;;;;;;;9.50;8.40;;;;;;;8.37;100.00;99603.35;179265;1267;44142;-85
2023/11/12 19:30:30;;;;;;;10.30;8.90;;;;;;;8.31;100.00;99602.36;179765;1267;43916;-86
2023/11/12 19:34:34;;;;;;;12.10;8.20;;;;;;;8.30;100.00;99601.42;179026;1267;45911;-83
2023/11/12 19:38:39;;;;;;;12.30;9.30;;;;;;;8.35;100.00;99607.23;176799;1268;59093;-85
2023/11/12 19:42:42;;;;;;;12.80;8.80;;;;;;;8.43;100.00;99611.83;178521;1268;46017;-86